createdAt,value
2022-12-29T00:02:50.563Z,14.88
2022-12-29T00:05:58.705Z,15.75
2022-12-29T00:09:02.681Z,13.47
2022-12-29T00:12:06.850Z,12.30
2022-12-29T00:15:28.608Z,14.77
2022-12-29T00:18:32.065Z,14.82
2022-12-29T00:22:13.684Z,14.35
2022-12-29T00:25:36.757Z,13.48
2022-12-29T00:28:58.943Z,12.13
2022-12-29T00:32:20.752Z,12.83
2022-12-29T00:35:50.085Z,12.98
2022-12-29T00:39:23.288Z,11.45
2022-12-29T00:42:45.465Z,12.98
2022-12-29T00:45:49.115Z,13.40
2022-12-29T00:49:11.281Z,13.00
2022-12-29T00:52:15.660Z,13.02
2022-12-29T00:55:22.302Z,14.03
2022-12-29T00:58:27.837Z,13.38
2022-12-29T01:01:31.576Z,12.68
2022-12-29T01:04:35.659Z,12.07
2022-12-29T01:07:39.081Z,11.17
2022-12-29T01:10:43.132Z,13.38
2022-12-29T01:13:46.591Z,12.57
2022-12-29T01:16:50.802Z,13.68
2022-12-29T01:19:54.224Z,11.93
2022-12-29T01:22:58.092Z,11.90
2022-12-29T01:26:12.898Z,12.63
2022-12-29T01:29:16.608Z,12.98
2022-12-29T01:32:22.728Z,12.33
2022-12-29T01:35:26.214Z,13.40
2022-12-29T01:38:29.790Z,12.10
2022-12-29T01:41:33.278Z,11.63
2022-12-29T01:44:53.074Z,11.85
2022-12-29T01:48:06.070Z,12.18
2022-12-29T01:51:10.014Z,11.98
2022-12-29T01:54:23.797Z,11.57
2022-12-29T01:57:32.568Z,11.88
2022-12-29T02:00:38.691Z,12.27
2022-12-29T02:03:42.912Z,11.23
2022-12-29T02:07:02.186Z,11.27
2022-12-29T02:10:06.462Z,11.80
2022-12-29T02:13:10.792Z,10.57
2022-12-29T02:16:14.400Z,12.27
2022-12-29T02:19:36.821Z,11.55
2022-12-29T02:23:22.152Z,11.85
2022-12-29T02:27:10.287Z,11.20
2022-12-29T02:30:34.478Z,10.87
2022-12-29T02:34:08.153Z,10.70
2022-12-29T02:37:24.922Z,11.25
2022-12-29T02:40:56.118Z,11.48
2022-12-29T02:44:20.610Z,10.40
2022-12-29T02:47:41.797Z,11.13
2022-12-29T02:51:02.007Z,11.52
2022-12-29T02:54:24.617Z,11.57
2022-12-29T02:57:30.102Z,10.98
2022-12-29T03:00:34.849Z,11.63
2022-12-29T03:04:02.073Z,13.07
2022-12-29T03:07:19.652Z,11.25
2022-12-29T03:11:06.432Z,11.57
2022-12-29T03:14:51.813Z,11.20
2022-12-29T03:18:22.901Z,11.37
2022-12-29T03:22:03.298Z,11.32
2022-12-29T03:25:25.744Z,10.52
2022-12-29T03:28:47.302Z,10.37
2022-12-29T03:31:56.777Z,10.82
2022-12-29T03:35:02.026Z,11.30
2022-12-29T03:38:25.519Z,10.85
2022-12-29T03:41:32.715Z,11.25
2022-12-29T03:44:41.168Z,12.18
2022-12-29T03:47:45.908Z,12.55
2022-12-29T03:50:49.980Z,11.47
2022-12-29T03:53:56.942Z,10.90
2022-12-29T03:57:00.526Z,10.95
2022-12-29T04:00:15.634Z,11.07
2022-12-29T04:03:19.091Z,11.43
2022-12-29T04:06:22.651Z,10.90
2022-12-29T04:09:32.403Z,11.32
2022-12-29T04:12:36.598Z,10.52
2022-12-29T04:15:40.317Z,10.40
2022-12-29T04:18:44.699Z,10.05
2022-12-29T04:21:48.354Z,10.30
2022-12-29T04:24:51.888Z,10.48
2022-12-29T04:27:55.602Z,10.07
2022-12-29T04:31:34.841Z,10.25
2022-12-29T04:34:38.786Z,10.20
2022-12-29T04:37:43.083Z,10.18
2022-12-29T04:40:47.313Z,10.98
2022-12-29T04:43:52.147Z,11.18
2022-12-29T04:47:13.795Z,10.68
2022-12-29T04:50:26.912Z,11.10
2022-12-29T04:53:53.316Z,10.18
2022-12-29T04:56:56.776Z,10.47
2022-12-29T05:00:01.506Z,10.32
2022-12-29T05:03:05.277Z,10.38
2022-12-29T05:06:09.276Z,9.73
2022-12-29T05:09:12.724Z,10.07
2022-12-29T05:12:16.191Z,10.95
2022-12-29T05:15:39.366Z,10.63
2022-12-29T05:18:42.999Z,10.25
2022-12-29T05:21:46.542Z,10.07
2022-12-29T05:24:50.201Z,9.52
2022-12-29T05:27:53.880Z,10.32
2022-12-29T05:31:16.090Z,10.35
2022-12-29T05:34:21.053Z,9.57
2022-12-29T05:37:24.629Z,10.30
2022-12-29T05:40:28.128Z,9.90
2022-12-29T05:43:35.398Z,9.40
2022-12-29T05:46:50.822Z,10.35
2022-12-29T05:50:17.266Z,9.82
2022-12-29T05:53:45.458Z,9.48
2022-12-29T05:56:48.980Z,8.97
2022-12-29T05:59:52.686Z,9.57
2022-12-29T06:02:57.428Z,9.50
2022-12-29T06:06:01.009Z,8.93
2022-12-29T06:09:05.306Z,9.25
2022-12-29T06:12:09.001Z,9.32
2022-12-29T06:15:13.917Z,9.88
2022-12-29T06:18:20.312Z,9.77
2022-12-29T06:21:24.613Z,10.18
2022-12-29T06:24:28.104Z,9.57
2022-12-29T06:27:31.614Z,9.13
2022-12-29T06:30:35.172Z,11.68
2022-12-29T06:33:40.046Z,10.52
2022-12-29T06:36:43.801Z,8.70
2022-12-29T06:39:47.219Z,8.67
2022-12-29T06:42:51.957Z,10.07
2022-12-29T06:46:09.587Z,8.25
2022-12-29T06:49:13.505Z,8.40
2022-12-29T06:52:17.453Z,9.67
2022-12-29T06:55:22.363Z,8.60
2022-12-29T06:58:25.847Z,8.93
2022-12-29T07:01:29.555Z,9.05
2022-12-29T07:04:33.600Z,8.30
2022-12-29T07:07:37.051Z,8.95
2022-12-29T07:10:40.595Z,8.93
2022-12-29T07:13:44.003Z,9.18
2022-12-29T07:16:47.530Z,9.17
2022-12-29T07:19:51.254Z,8.43
2022-12-29T07:22:54.899Z,9.50
2022-12-29T07:26:07.293Z,9.35
2022-12-29T07:29:10.793Z,8.80
2022-12-29T07:32:14.408Z,9.30
2022-12-29T07:35:17.960Z,8.98
2022-12-29T07:38:21.712Z,7.50
2022-12-29T07:41:25.234Z,9.00
2022-12-29T07:44:28.836Z,10.20
2022-12-29T07:47:58.086Z,7.67
2022-12-29T07:51:01.559Z,8.13
2022-12-29T07:54:05.231Z,8.77
2022-12-29T07:57:08.677Z,8.43
2022-12-29T08:00:12.897Z,6.63
2022-12-29T08:03:16.622Z,7.07
2022-12-29T08:06:21.117Z,7.72
2022-12-29T08:09:24.766Z,5.60
2022-12-29T08:12:29.015Z,8.30
2022-12-29T08:15:32.870Z,6.18
2022-12-29T08:18:36.349Z,6.50
2022-12-29T08:21:40.166Z,6.55
2022-12-29T08:24:43.652Z,6.95
2022-12-29T08:27:47.082Z,6.55
2022-12-29T08:30:50.647Z,7.67
2022-12-29T08:33:54.138Z,5.63
2022-12-29T08:36:57.920Z,5.93
2022-12-29T08:40:04.829Z,6.60
2022-12-29T08:43:08.883Z,5.78
2022-12-29T08:46:12.402Z,6.47
2022-12-29T08:49:16.225Z,7.13
2022-12-29T08:52:19.944Z,7.72
2022-12-29T09:06:23.724Z,6.80
2022-12-29T09:09:27.121Z,7.65
2022-12-29T09:12:36.062Z,8.27
2022-12-29T09:15:41.118Z,7.47
2022-12-29T09:18:45.963Z,6.68
2022-12-29T09:21:49.433Z,7.40
2022-12-29T09:24:53.037Z,7.35
2022-12-29T09:27:56.469Z,6.88
2022-12-29T09:31:00.580Z,7.32
2022-12-29T09:34:04.105Z,6.85
2022-12-29T09:37:07.589Z,7.20
2022-12-29T09:40:31.114Z,6.35
2022-12-29T09:43:42.982Z,6.82
2022-12-29T09:46:50.734Z,6.85
2022-12-29T09:49:57.461Z,6.65
2022-12-29T09:53:07.042Z,7.67
2022-12-29T09:56:24.669Z,7.80
2022-12-29T09:59:45.017Z,7.32
2022-12-29T10:03:00.842Z,7.32
2022-12-29T10:06:21.011Z,7.72
2022-12-29T17:22:44.182Z,7.10
2022-12-29T17:34:05.567Z,6.95
